| time (UTC) | temp C | wind direction | speed KPH | gust KPH | rain 1hr cm | rain 24hr cm | rain mn cm | humidity % | barometer mb |
| 20260906092517 | 27 | 272 | 6.4 | 17.7 | 0.00 | 0.00 | 0.00 | 58 | 1014.6 |
| 20260906091558 | 27 | 271 | 6.4 | 20.9 | 0.00 | 0.00 | 0.00 | 59 | 1014.6 |
| 20260906090517 | 27 | 278 | 8.0 | 19.3 | 0.00 | 0.00 | 0.00 | 60 | 1014.7 |
| 20260906085517 | 26 | 270 | 9.7 | 20.9 | 0.00 | 0.00 | 0.00 | 64 | 1014.6 |
| 20260906084518 | 26 | 282 | 6.4 | 16.1 | 0.00 | 0.00 | 0.00 | 65 | 1014.7 |
| 20260906083517 | 26 | 264 | 12.9 | 25.7 | 0.00 | 0.00 | 0.00 | 65 | 1014.7 |
| 20260906082518 | 25 | 267 | 14.5 | 24.1 | 0.00 | 0.00 | 0.00 | 66 | 1014.7 |
| 20260906081517 | 26 | 275 | 11.3 | 22.5 | 0.00 | 0.00 | 0.00 | 64 | 1014.7 |
| 20260906080517 | 26 | 277 | 12.9 | 19.3 | 0.00 | 0.00 | 0.00 | 62 | 1014.8 |
| 20260906075517 | 26 | 261 | 12.9 | 20.9 | 0.00 | 0.00 | 0.00 | 62 | 1014.8 |
| 20260906074517 | 26 | 317 | 6.4 | 14.5 | 0.00 | 0.00 | 0.00 | 62 | 1014.8 |
| 20260906073517 | 26 | 292 | 6.4 | 17.7 | 0.00 | 0.00 | 0.00 | 62 | 1014.8 |
| 20260906072517 | 26 | 287 | 6.4 | 17.7 | 0.00 | 0.00 | 0.00 | 62 | 1014.7 |
| 20260906071517 | 26 | 280 | 8.0 | 19.3 | 0.00 | 0.00 | 0.00 | 63 | 1014.6 |
| 20260906070518 | 26 | 308 | 3.2 | 19.3 | 0.00 | 0.00 | 0.00 | 62 | 1014.4 |
| 20260906065518 | 25 | 329 | 9.7 | 17.7 | 0.00 | 0.00 | 0.00 | 63 | 1014.3 |
| 20260906064537 | 25 | 323 | 9.7 | 27.4 | 0.00 | 0.00 | 0.00 | 64 | 1014.3 |
| 20260906063517 | 25 | 328 | 12.9 | 25.7 | 0.00 | 0.00 | 0.00 | 66 | 1014.3 |
| 20260906062517 | 25 | 304 | 8.0 | 16.1 | 0.00 | 0.00 | 0.00 | 68 | 1014.2 |
| 20260906061517 | 25 | 303 | 3.2 | 12.9 | 0.00 | 0.00 | 0.00 | 68 | 1014.1 |
| 20260906060517 | 25 | 319 | 3.2 | 12.9 | 0.00 | 0.00 | 0.00 | 68 | 1014.1 |
| 20260906055517 | 25 | 336 | 4.8 | 14.5 | 0.00 | 0.00 | 0.00 | 69 | 1014.0 |
| 20260906054538 | 25 | 325 | 4.8 | 19.3 | 0.00 | 0.00 | 0.00 | 68 | 1014.0 |
| 20260906053537 | 25 | 341 | 1.6 | 9.7 | 0.00 | 0.00 | 0.00 | 68 | 1014.0 |
| 20260906052517 | 25 | 255 | 1.6 | 11.3 | 0.00 | 0.00 | 0.00 | 69 | 1014.0 |
| 20260906051518 | 25 | 22 | 1.6 | 12.9 | 0.00 | 0.00 | 0.00 | 68 | 1013.9 |
| 20260906050537 | 24 | 339 | 8.0 | 17.7 | 0.00 | 0.00 | 0.00 | 68 | 1013.8 |
| 20260906045517 | 24 | 330 | 3.2 | 14.5 | 0.00 | 0.00 | 0.00 | 67 | 1013.7 |
| 20260906044518 | 24 | 346 | 6.4 | 17.7 | 0.00 | 0.00 | 0.00 | 67 | 1013.7 |
| 20260906043517 | 24 | 349 | 6.4 | 16.1 | 0.00 | 0.00 | 0.00 | 65 | 1013.4 |
| 20260906042517 | 24 | 355 | 8.0 | 16.1 | 0.00 | 0.00 | 0.00 | 65 | 1013.4 |
| 20260906041517 | 24 | 1 | 4.8 | 14.5 | 0.00 | 0.00 | 0.00 | 64 | 1013.3 |
| 20260906040517 | 24 | 351 | 9.7 | 17.7 | 0.00 | 0.00 | 0.00 | 64 | 1013.2 |
| 20260906035517 | 24 | 355 | 6.4 | 16.1 | 0.00 | 0.00 | 0.00 | 64 | 1013.1 |
| 20260906034518 | 24 | 358 | 8.0 | 14.5 | 0.00 | 0.00 | 0.00 | 63 | 1012.9 |
| 20260906033517 | 24 | 343 | 11.3 | 19.3 | 0.00 | 0.00 | 0.00 | 64 | 1012.9 |
| 20260906032518 | 25 | 346 | 9.7 | 19.3 | 0.00 | 0.00 | 0.00 | 63 | 1013.0 |
| 20260906031517 | 25 | 341 | 11.3 | 17.7 | 0.00 | 0.00 | 0.00 | 63 | 1013.0 |
| 20260906030517 | 25 | 342 | 11.3 | 16.1 | 0.00 | 0.00 | 0.00 | 61 | 1012.9 |
| 20260906025518 | 25 | 343 | 9.7 | 16.1 | 0.00 | 0.00 | 0.00 | 63 | 1012.9 |
| 20260906024517 | 25 | 347 | 9.7 | 17.7 | 0.00 | 0.00 | 0.00 | 62 | 1012.9 |
| 20260906023517 | 24 | 340 | 9.7 | 17.7 | 0.00 | 0.00 | 0.00 | 65 | 1012.9 |
| 20260906022517 | 25 | 348 | 4.8 | 9.7 | 0.00 | 0.00 | 0.00 | 63 | 1012.9 |
| 20260906021517 | 25 | 359 | 6.4 | 12.9 | 0.00 | 0.00 | 0.00 | 61 | 1012.8 |
| 20260906020517 | 25 | 352 | 9.7 | 16.1 | 0.00 | 0.00 | 0.00 | 61 | 1012.9 |
| 20260906015517 | 25 | 348 | 8.0 | 14.5 | 0.00 | 0.00 | 0.00 | 59 | 1012.9 |
| 20260906014517 | 25 | 348 | 9.7 | 19.3 | 0.00 | 0.00 | 0.00 | 60 | 1012.8 |
| 20260906013517 | 25 | 349 | 8.0 | 17.7 | 0.00 | 0.00 | 0.00 | 60 | 1012.9 |
| 20260906012517 | 25 | 346 | 8.0 | 16.1 | 0.00 | 0.00 | 0.00 | 61 | 1012.9 |
| 20260906011517 | 25 | 349 | 6.4 | 20.9 | 0.00 | 0.00 | 0.00 | 61 | 1012.9 |
| 20260906010537 | 25 | 352 | 6.4 | 16.1 | 0.00 | 0.00 | 0.00 | 61 | 1012.9 |
| 20260906005539 | 25 | 353 | 8.0 | 17.7 | 0.00 | 0.00 | 0.00 | 59 | 1013.0 |
| 20260906004517 | 25 | 344 | 9.7 | 16.1 | 0.00 | 0.00 | 0.00 | 61 | 1013.0 |
| 20260906003537 | 25 | 348 | 6.4 | 14.5 | 0.00 | 0.00 | 0.00 | 60 | 1012.9 |
| 20260906002517 | 25 | 350 | 8.0 | 16.1 | 0.00 | 0.00 | 0.00 | 59 | 1012.9 |
| 20260906001517 | 25 | 350 | 6.4 | 14.5 | 0.00 | 0.00 | 0.00 | 60 | 1012.9 |
| 20260906000538 | 25 | 342 | 6.4 | 14.5 | 0.00 | 0.00 | 0.00 | 60 | 1012.9 |
| 20260905235517 | 25 | 348 | 4.8 | 12.9 | 0.00 | 0.00 | 0.00 | 60 | 1013.0 |
| 20260905234517 | 26 | 352 | 4.8 | 14.5 | 0.00 | 0.00 | 0.00 | 60 | 1013.0 |
| 20260905233517 | 26 | 343 | 4.8 | 14.5 | 0.00 | 0.00 | 0.00 | 59 | 1013.0 |
| 20260905232517 | 26 | 354 | 6.4 | 14.5 | 0.00 | 0.00 | 0.00 | 60 | 1013.0 |
| 20260905231519 | 26 | 334 | 4.8 | 11.3 | 0.00 | 0.00 | 0.00 | 59 | 1012.9 |
| 20260905230517 | 26 | 348 | 3.2 | 14.5 | 0.00 | 0.00 | 0.00 | 59 | 1013.0 |
| 20260905225517 | 26 | 346 | 6.4 | 17.7 | 0.00 | 0.00 | 0.00 | 60 | 1013.0 |
| 20260905224517 | 26 | 356 | 4.8 | 17.7 | 0.00 | 0.00 | 0.00 | 60 | 1013.0 |
| 20260905223517 | 26 | 346 | 8.0 | 19.3 | 0.00 | 0.00 | 0.00 | 59 | 1013.0 |
| 20260905222517 | 26 | 344 | 8.0 | 16.1 | 0.00 | 0.00 | 0.00 | 58 | 1013.1 |
| 20260905221517 | 26 | 345 | 11.3 | 19.3 | 0.00 | 0.00 | 0.00 | 57 | 1013.2 |
| 20260905220518 | 26 | 359 | 4.8 | 14.5 | 0.00 | 0.00 | 0.00 | 58 | 1013.2 |
| 20260905215518 | 26 | 6 | 6.4 | 11.3 | 0.00 | 0.00 | 0.00 | 59 | 1013.2 |
| 20260905214517 | 26 | 338 | 4.8 | 17.7 | 0.00 | 0.00 | 0.00 | 59 | 1013.3 |
| 20260905213518 | 27 | 350 | 8.0 | 22.5 | 0.00 | 0.00 | 0.00 | 58 | 1013.3 |
| 20260905212517 | 27 | 347 | 8.0 | 17.7 | 0.00 | 0.00 | 0.00 | 57 | 1013.3 |
| 20260905211517 | 27 | 354 | 4.8 | 16.1 | 0.00 | 0.00 | 0.00 | 58 | 1013.4 |
| 20260905210539 | 26 | 342 | 8.0 | 24.1 | 0.00 | 0.00 | 0.00 | 58 | 1013.3 |
| 20260905205518 | 26 | 343 | 12.9 | 22.5 | 0.00 | 0.00 | 0.00 | 60 | 1013.3 |
| 20260905204518 | 27 | 337 | 8.0 | 19.3 | 0.00 | 0.00 | 0.00 | 59 | 1013.3 |
| 20260905203517 | 26 | 350 | 11.3 | 22.5 | 0.00 | 0.00 | 0.00 | 60 | 1013.3 |
| 20260905202518 | 26 | 343 | 12.9 | 27.4 | 0.00 | 0.00 | 0.00 | 61 | 1013.2 |
| 20260905201517 | 27 | 334 | 11.3 | 20.9 | 0.00 | 0.00 | 0.00 | 60 | 1013.2 |
| 20260905200517 | 26 | 307 | 4.8 | 16.1 | 0.00 | 0.00 | 0.00 | 62 | 1013.1 |
| 20260905195517 | 26 | 336 | 9.7 | 22.5 | 0.00 | 0.00 | 0.00 | 64 | 1013.1 |
| 20260905194538 | 26 | 341 | 9.7 | 20.9 | 0.00 | 0.00 | 0.00 | 64 | 1013.2 |
| 20260905193539 | 26 | 348 | 12.9 | 33.8 | 0.00 | 0.00 | 0.00 | 65 | 1013.2 |
| 20260905192517 | 26 | 344 | 9.7 | 19.3 | 0.00 | 0.00 | 0.00 | 65 | 1013.4 |
| 20260905191517 | 26 | 347 | 12.9 | 27.4 | 0.00 | 0.00 | 0.00 | 65 | 1013.3 |
| 20260905190558 | 26 | 346 | 9.7 | 29.0 | 0.00 | 0.00 | 0.00 | 66 | 1013.3 |
| 20260905185517 | 26 | 343 | 12.9 | 25.7 | 0.00 | 0.00 | 0.00 | 65 | 1013.2 |
| 20260905184517 | 26 | 341 | 9.7 | 20.9 | 0.00 | 0.00 | 0.00 | 64 | 1013.1 |
| 20260905183518 | 26 | 348 | 9.7 | 20.9 | 0.00 | 0.00 | 0.00 | 64 | 1013.0 |
| 20260905182518 | 26 | 339 | 12.9 | 27.4 | 0.00 | 0.00 | 0.00 | 65 | 1012.9 |
| 20260905181518 | 26 | 343 | 9.7 | 22.5 | 0.00 | 0.00 | 0.00 | 67 | 1012.9 |
| 20260905180517 | 27 | 339 | 12.9 | 27.4 | 0.00 | 0.00 | 0.00 | 64 | 1012.8 |
| 20260905175517 | 27 | 347 | 9.7 | 22.5 | 0.00 | 0.00 | 0.00 | 63 | 1012.6 |
| 20260905174518 | 26 | 353 | 9.7 | 19.3 | 0.00 | 0.00 | 0.00 | 65 | 1012.5 |
| 20260905173518 | 26 | 341 | 9.7 | 24.1 | 0.00 | 0.00 | 0.00 | 65 | 1012.5 |
| 20260905172518 | 26 | 348 | 9.7 | 20.9 | 0.00 | 0.00 | 0.00 | 65 | 1012.4 |
| 20260905171518 | 26 | 355 | 12.9 | 30.6 | 0.00 | 0.00 | 0.00 | 65 | 1012.4 |
| 20260905170517 | 27 | 332 | 12.9 | 27.4 | 0.00 | 0.00 | 0.00 | 64 | 1012.3 |
| 20260905165517 | 27 | 341 | 11.3 | 24.1 | 0.00 | 0.00 | 0.00 | 63 | 1012.3 |
| 20260905164517 | 27 | 349 | 8.0 | 22.5 | 0.00 | 0.00 | 0.00 | 62 | 1012.2 |
| 20260905163517 | 27 | 333 | 12.9 | 32.2 | 0.00 | 0.00 | 0.00 | 60 | 1012.1 |
| 20260905162518 | 27 | 348 | 6.4 | 17.7 | 0.00 | 0.00 | 0.00 | 60 | 1012.1 |
| 20260905161518 | 27 | 329 | 6.4 | 19.3 | 0.00 | 0.00 | 0.00 | 61 | 1012.0 |
| 20260905160538 | 28 | 312 | 6.4 | 19.3 | 0.00 | 0.00 | 0.00 | 61 | 1012.0 |
| 20260905155517 | 28 | 322 | 8.0 | 20.9 | 0.00 | 0.00 | 0.00 | 60 | 1011.9 |
| 20260905154517 | 28 | 299 | 6.4 | 19.3 | 0.00 | 0.00 | 0.00 | 60 | 1011.9 |
| 20260905153537 | 28 | 291 | 12.9 | 25.7 | 0.00 | 0.00 | 0.00 | 61 | 1011.9 |
| 20260905152517 | 28 | 286 | 8.0 | 19.3 | 0.00 | 0.00 | 0.00 | 62 | 1011.9 |
| 20260905151537 | 28 | 255 | 8.0 | 27.4 | 0.00 | 0.00 | 0.00 | 62 | 1011.9 |
| 20260905150517 | 28 | 281 | 11.3 | 32.2 | 0.00 | 0.00 | 0.00 | 62 | 1011.8 |
| 20260905145519 | 28 | 293 | 8.0 | 29.0 | 0.00 | 0.00 | 0.00 | 62 | 1011.7 |
| 20260905144518 | 28 | 285 | 8.0 | 22.5 | 0.00 | 0.00 | 0.00 | 63 | 1011.7 |
| 20260905143517 | 28 | 257 | 4.8 | 27.4 | 0.00 | 0.00 | 0.00 | 63 | 1011.7 |
| 20260905142518 | 28 | 303 | 6.4 | 20.9 | 0.00 | 0.00 | 0.00 | 62 | 1011.7 |
| 20260905141518 | 29 | 272 | 4.8 | 19.3 | 0.00 | 0.00 | 0.00 | 60 | 1011.7 |
| 20260905140517 | 29 | 273 | 12.9 | 29.0 | 0.00 | 0.00 | 0.00 | 58 | 1011.7 |
| 20260905135518 | 29 | 272 | 14.5 | 25.7 | 0.00 | 0.00 | 0.00 | 57 | 1011.7 |
| 20260905134518 | 29 | 264 | 8.0 | 24.1 | 0.00 | 0.00 | 0.00 | 58 | 1011.8 |
| 20260905133538 | 29 | 280 | 6.4 | 27.4 | 0.00 | 0.00 | 0.00 | 60 | 1011.9 |
| 20260905132518 | 29 | 278 | 8.0 | 22.5 | 0.00 | 0.00 | 0.00 | 59 | 1012.0 |
| 20260905131517 | 28 | 271 | 12.9 | 29.0 | 0.00 | 0.00 | 0.00 | 59 | 1012.0 |
| 20260905130537 | 28 | 277 | 11.3 | 27.4 | 0.00 | 0.00 | 0.00 | 60 | 1012.1 |
| 20260905125517 | 28 | 269 | 3.2 | 19.3 | 0.00 | 0.00 | 0.00 | 62 | 1012.1 |
| 20260905124516 | 29 | 282 | 6.4 | 16.1 | 0.00 | 0.00 | 0.00 | 61 | 1012.1 |
| 20260905123538 | 28 | 324 | 4.8 | 19.3 | 0.00 | 0.00 | 0.00 | 62 | 1012.2 |
| 20260905122537 | 28 | 276 | 8.0 | 22.5 | 0.00 | 0.00 | 0.00 | 62 | 1012.2 |
| 20260905120517 | 28 | 284 | 8.0 | 19.3 | 0.00 | 0.00 | 0.00 | 63 | 1012.2 |
| 20260905115537 | 28 | 299 | 4.8 | 17.7 | 0.00 | 0.00 | 0.00 | 63 | 1012.3 |
| 20260905114518 | 28 | 293 | 6.4 | 20.9 | 0.00 | 0.00 | 0.00 | 62 | 1012.3 |
| 20260905113517 | 28 | 297 | 6.4 | 17.7 | 0.00 | 0.00 | 0.00 | 62 | 1012.4 |
| 20260905112538 | 28 | 291 | 6.4 | 24.1 | 0.00 | 0.00 | 0.00 | 63 | 1012.4 |
| 20260905111517 | 28 | 300 | 9.7 | 29.0 | 0.00 | 0.00 | 0.00 | 63 | 1012.5 |
| 20260905110517 | 27 | 275 | 8.0 | 27.4 | 0.00 | 0.00 | 0.00 | 64 | 1012.5 |
| 20260905105516 | 27 | 295 | 9.7 | 22.5 | 0.00 | 0.00 | 0.00 | 65 | 1012.5 |
| 20260905104517 | 28 | 307 | 4.8 | 19.3 | 0.00 | 0.00 | 0.00 | 65 | 1012.6 |
| 20260905103517 | 27 | 277 | 9.7 | 27.4 | 0.00 | 0.00 | 0.00 | 67 | 1012.6 |
| 20260905102516 | 27 | 272 | 11.3 | 22.5 | 0.00 | 0.00 | 0.00 | 67 | 1012.7 |
| 20260905101518 | 27 | 275 | 8.0 | 20.9 | 0.00 | 0.00 | 0.00 | 67 | 1012.7 |
| 20260905100517 | 27 | 293 | 8.0 | 19.3 | 0.00 | 0.00 | 0.00 | 67 | 1012.7 |
| 20260905095517 | 27 | 286 | 6.4 | 19.3 | 0.00 | 0.00 | 0.00 | 69 | 1012.6 |
| 20260905094516 | 27 | 290 | 6.4 | 20.9 | 0.00 | 0.00 | 0.00 | 68 | 1012.7 |
| 20260905093517 | 26 | 279 | 4.8 | 22.5 | 0.00 | 0.00 | 0.00 | 68 | 1012.8 |